createdAt,value
2019-04-05T00:02:01.086Z,12.90
2019-04-05T00:04:36.129Z,12.90
2019-04-05T00:07:11.216Z,12.90
2019-04-05T00:09:47.434Z,12.80
2019-04-05T00:12:22.462Z,12.70
2019-04-05T00:14:57.503Z,12.70
2019-04-05T00:17:32.525Z,12.70
2019-04-05T00:20:08.687Z,12.60
2019-04-05T00:22:43.733Z,12.60
2019-04-05T00:25:18.754Z,12.60
2019-04-05T00:27:55.153Z,12.60
2019-04-05T00:30:30.176Z,12.60
2019-04-05T00:33:05.562Z,12.50
2019-04-05T00:35:40.876Z,12.50
2019-04-05T00:38:15.938Z,12.50
2019-04-05T00:40:51.257Z,12.40
2019-04-05T00:43:27.249Z,12.40
2019-04-05T00:46:02.274Z,12.40
2019-04-05T00:48:37.717Z,12.40
2019-04-05T00:51:12.752Z,12.30
2019-04-05T00:53:47.792Z,12.30
2019-04-05T00:56:23.110Z,12.30
2019-04-05T00:58:59.291Z,12.20
2019-04-05T01:01:34.782Z,12.20
2019-04-05T01:04:09.814Z,12.20
2019-04-05T01:06:45.146Z,12.20
2019-04-05T01:09:20.181Z,12.20
2019-04-05T01:11:55.215Z,12.20
2019-04-05T01:14:30.529Z,12.20
2019-04-05T01:17:05.873Z,12.20
2019-04-05T01:19:43.813Z,12.20
2019-04-05T01:22:21.673Z,12.10
2019-04-05T01:24:58.365Z,12.20
2019-04-05T01:27:37.473Z,12.10
2019-04-05T01:30:15.522Z,12.10
2019-04-05T01:32:50.542Z,12.10
2019-04-05T01:35:25.639Z,12.10
2019-04-05T01:38:01.058Z,12.00
2019-04-05T01:40:38.327Z,12.00
2019-04-05T01:43:13.354Z,12.00
2019-04-05T01:45:53.854Z,12.00
2019-04-05T01:48:26.925Z,11.90
2019-04-05T01:51:02.450Z,11.90
2019-04-05T01:53:37.661Z,11.90
2019-04-05T01:56:12.726Z,11.90
2019-04-05T01:58:47.769Z,11.90
2019-04-05T02:01:22.898Z,11.80
2019-04-05T02:03:58.224Z,11.70
2019-04-05T02:06:33.967Z,11.70
2019-04-05T02:09:11.391Z,11.70
2019-04-05T02:11:46.510Z,11.60
2019-04-05T02:14:21.549Z,11.60
2019-04-05T02:16:56.847Z,11.60
2019-04-05T02:19:31.875Z,11.50
2019-04-05T02:22:06.989Z,11.60
2019-04-05T02:24:42.283Z,11.50
2019-04-05T02:27:18.261Z,11.50
2019-04-05T02:29:53.286Z,11.50
2019-04-05T02:32:28.335Z,11.50
2019-04-05T02:35:04.580Z,11.50
2019-04-05T02:37:39.883Z,11.40
2019-04-05T02:40:17.022Z,11.40
2019-04-05T02:42:55.439Z,11.30
2019-04-05T02:45:33.254Z,11.30
2019-04-05T02:48:11.954Z,11.30
2019-04-05T02:50:50.462Z,11.20
2019-04-05T02:53:25.584Z,11.20
2019-04-05T02:56:03.162Z,11.20
2019-04-05T02:58:40.169Z,11.10
2019-04-05T03:01:16.861Z,11.10
2019-04-05T03:03:52.104Z,11.00
2019-04-05T03:06:28.220Z,11.00
2019-04-05T03:09:06.219Z,10.90
2019-04-05T03:11:44.260Z,11.00
2019-04-05T03:14:21.251Z,10.90
2019-04-05T03:16:56.750Z,10.90
2019-04-05T03:19:34.481Z,10.90
2019-04-05T03:22:14.231Z,10.90
2019-04-05T03:24:49.895Z,10.80
2019-04-05T03:27:28.396Z,10.80
2019-04-05T03:30:04.668Z,10.80
2019-04-05T03:32:40.188Z,10.80
2019-04-05T03:35:15.656Z,10.70
2019-04-05T03:37:51.096Z,10.60
2019-04-05T03:40:26.871Z,10.70
2019-04-05T03:43:02.337Z,10.60
2019-04-05T03:45:37.768Z,10.60
2019-04-05T03:48:13.165Z,10.60
2019-04-05T03:50:48.303Z,10.60
2019-04-05T03:53:24.653Z,10.50
2019-04-05T03:55:59.761Z,10.40
2019-04-05T03:58:34.884Z,10.40
2019-04-05T04:01:10.067Z,10.40
2019-04-05T04:03:45.533Z,10.40
2019-04-05T04:06:21.639Z,10.40
2019-04-05T04:08:56.761Z,10.40
2019-04-05T04:11:32.293Z,10.30
2019-04-05T04:14:08.550Z,10.30
2019-04-05T04:16:43.964Z,10.30
2019-04-05T04:19:19.240Z,10.20
2019-04-05T04:22:21.037Z,10.20
2019-04-05T04:24:56.887Z,10.20
2019-04-05T04:27:32.278Z,10.10
2019-04-05T04:30:07.871Z,10.20
2019-04-05T04:32:43.283Z,10.10
2019-04-05T04:35:19.269Z,10.20
2019-04-05T04:37:54.561Z,10.10
2019-04-05T04:40:30.048Z,10.20
2019-04-05T04:43:06.190Z,10.20
2019-04-05T04:45:42.408Z,10.20
2019-04-05T04:48:17.991Z,10.20
2019-04-05T04:50:54.615Z,10.20
2019-04-05T04:53:29.829Z,10.20
2019-04-05T04:56:05.253Z,10.20
2019-04-05T04:58:40.297Z,10.20
2019-04-05T05:01:16.650Z,10.20
2019-04-05T05:03:51.678Z,10.20
2019-04-05T05:06:26.728Z,10.30
2019-04-05T05:09:01.825Z,10.30
2019-04-05T05:11:38.095Z,10.40
2019-04-05T05:14:13.137Z,10.40
2019-04-05T05:16:48.601Z,10.50
2019-04-05T05:19:24.054Z,10.60
2019-04-05T05:21:59.109Z,10.60
2019-04-05T05:24:34.389Z,10.70
2019-04-05T05:27:12.660Z,10.70
2019-04-05T05:29:47.957Z,10.80
2019-04-05T05:32:23.239Z,10.80
2019-04-05T05:35:02.161Z,10.90
2019-04-05T05:37:36.658Z,10.90
2019-04-05T05:40:12.313Z,10.90
2019-04-05T05:42:47.521Z,10.90
2019-04-05T05:45:22.806Z,11.00
2019-04-05T05:47:57.909Z,11.00
2019-04-05T05:50:33.717Z,11.00
2019-04-05T05:53:08.753Z,11.00
2019-04-05T05:55:44.979Z,11.10
2019-04-05T05:58:21.353Z,11.10
2019-04-05T06:01:00.098Z,11.20
2019-04-05T06:03:35.206Z,11.30
2019-04-05T06:06:11.433Z,11.30
2019-04-05T06:08:47.665Z,11.30
2019-04-05T06:11:25.045Z,11.40
2019-04-05T06:14:00.387Z,11.40
2019-04-05T06:16:45.765Z,11.50
2019-04-05T06:19:13.853Z,11.60
2019-04-05T06:21:50.483Z,11.60
2019-04-05T06:24:26.262Z,11.70
2019-04-05T06:27:01.382Z,11.80
2019-04-05T06:29:36.737Z,11.80
2019-04-05T06:32:12.388Z,11.90
2019-04-05T06:34:47.503Z,12.00
2019-04-05T06:37:22.585Z,12.10
2019-04-05T06:39:58.016Z,12.20
2019-04-05T06:42:33.038Z,12.20
2019-04-05T06:45:08.590Z,12.20
2019-04-05T06:47:44.892Z,12.30
2019-04-05T06:50:21.877Z,12.40
2019-04-05T06:52:57.287Z,13.10
2019-04-05T06:55:34.575Z,14.60
2019-04-05T06:58:10.507Z,15.90
2019-04-05T07:00:57.085Z,17.10
2019-04-05T07:03:24.412Z,17.90
2019-04-05T07:06:02.869Z,18.60
2019-04-05T07:08:39.082Z,19.00
2019-04-05T07:11:15.641Z,19.20
2019-04-05T07:13:50.985Z,19.20
2019-04-05T07:16:26.400Z,19.20
2019-04-05T07:19:03.010Z,19.00
2019-04-05T07:21:38.231Z,19.00
2019-04-05T07:24:14.268Z,19.20
2019-04-05T07:26:50.260Z,18.90
2019-04-05T07:29:25.286Z,18.20
2019-04-05T07:32:02.282Z,16.90
2019-04-05T07:34:37.501Z,15.50
2019-04-05T07:37:12.549Z,14.30
2019-04-05T07:39:49.762Z,13.50
2019-04-05T07:42:24.798Z,12.80
2019-04-05T07:45:00.114Z,12.10
2019-04-05T07:47:35.215Z,11.60
2019-04-05T07:50:11.002Z,11.20
2019-04-05T07:52:46.030Z,10.90
2019-04-05T07:55:22.145Z,10.80
2019-04-05T07:57:58.129Z,10.70
2019-04-05T08:00:50.538Z,10.50
2019-04-05T08:03:26.149Z,10.50
2019-04-05T08:06:01.593Z,10.50
2019-04-05T08:08:46.022Z,10.40
2019-04-05T08:11:23.343Z,10.30
2019-04-05T08:14:00.725Z,10.30
2019-04-05T08:16:38.035Z,10.10
2019-04-05T08:19:16.149Z,10.10
2019-04-05T08:21:51.491Z,10.00
2019-04-05T08:24:26.517Z,10.00
2019-04-05T08:27:01.971Z,10.00
2019-04-05T08:29:37.285Z,9.90
2019-04-05T08:32:14.705Z,9.90
2019-04-05T08:34:50.317Z,9.90
2019-04-05T08:37:26.286Z,10.00
2019-04-05T08:40:01.622Z,10.10
2019-04-05T08:42:37.269Z,10.10
2019-04-05T08:45:12.786Z,10.10
2019-04-05T08:47:47.832Z,10.20
2019-04-05T08:50:23.193Z,10.30
2019-04-05T08:52:58.638Z,10.50
2019-04-05T08:55:33.683Z,10.60
2019-04-05T08:58:11.066Z,10.60
2019-04-05T09:00:46.175Z,10.70
2019-04-05T09:03:21.323Z,10.70
2019-04-05T09:05:56.605Z,10.70
2019-04-05T09:08:31.663Z,10.70
2019-04-05T09:11:07.057Z,10.80
2019-04-05T09:13:43.528Z,10.90
2019-04-05T09:16:19.429Z,11.00
2019-04-05T09:18:54.929Z,10.90
2019-04-05T09:21:30.915Z,10.80
2019-04-05T09:24:06.331Z,10.90
2019-04-05T09:26:41.673Z,10.90
2019-04-05T09:29:19.010Z,11.10
2019-04-05T09:31:54.071Z,11.10
2019-04-05T09:34:29.444Z,11.10
2019-04-05T09:37:04.785Z,11.10
2019-04-05T09:39:39.853Z,11.10
2019-04-05T09:42:14.891Z,11.10
2019-04-05T09:44:49.937Z,11.10
2019-04-05T09:47:26.258Z,11.00
2019-04-05T09:50:01.318Z,11.00
2019-04-05T09:52:39.993Z,11.00
2019-04-05T09:55:14.945Z,11.10
2019-04-05T09:57:50.070Z,11.00
2019-04-05T10:00:28.798Z,11.00
2019-04-05T10:03:04.561Z,11.10
2019-04-05T10:05:39.845Z,11.10
2019-04-05T10:08:14.889Z,11.10
2019-04-05T10:10:50.103Z,11.20
2019-04-05T10:13:25.420Z,11.30
2019-04-05T10:16:00.794Z,11.40
2019-04-05T10:18:37.831Z,11.40
2019-04-05T10:21:12.982Z,11.40
2019-04-05T10:23:48.103Z,11.40
2019-04-05T10:26:23.202Z,11.40
2019-04-05T10:28:59.237Z,11.40
2019-04-05T10:31:34.303Z,11.50
2019-04-05T10:34:09.688Z,11.50
2019-04-05T10:36:49.338Z,11.50
2019-04-05T10:39:24.385Z,11.60
2019-04-05T10:42:03.835Z,11.70
2019-04-05T10:44:36.195Z,11.70
2019-04-05T10:47:11.506Z,11.80
2019-04-05T10:49:47.811Z,12.00
2019-04-05T10:52:22.863Z,12.00
2019-04-05T10:54:58.145Z,12.10
2019-04-05T10:57:33.493Z,12.20
2019-04-05T11:00:15.705Z,12.40
2019-04-05T11:02:51.677Z,12.50
2019-04-05T11:05:28.064Z,12.60
2019-04-05T11:08:03.100Z,12.50
2019-04-05T11:10:38.477Z,12.50
2019-04-05T11:13:14.558Z,12.60
2019-04-05T11:15:49.607Z,12.60
2019-04-05T11:18:24.981Z,12.50
2019-04-05T11:21:00.920Z,12.40
2019-04-05T11:23:35.972Z,12.50
2019-04-05T11:26:16.912Z,12.60
2019-04-05T11:28:53.031Z,13.00
2019-04-05T11:31:28.143Z,13.50
2019-04-05T11:34:03.238Z,13.60
2019-04-05T11:36:40.842Z,13.70
2019-04-05T11:39:16.101Z,13.80
2019-04-05T11:41:55.219Z,14.30
2019-04-05T11:44:33.204Z,15.00
2019-04-05T11:47:12.281Z,15.30
2019-04-05T11:49:48.369Z,15.40
2019-04-05T11:52:24.678Z,15.30
2019-04-05T11:55:00.790Z,15.40
2019-04-05T11:57:36.069Z,15.50
2019-04-05T12:00:14.494Z,15.60
2019-04-05T12:02:51.208Z,15.60
2019-04-05T12:05:29.031Z,15.60
2019-04-05T12:08:06.148Z,15.80
2019-04-05T12:10:42.237Z,15.90
2019-04-05T12:13:17.822Z,15.70
2019-04-05T12:15:54.431Z,15.70
2019-04-05T12:18:34.825Z,15.90
2019-04-05T12:21:09.932Z,16.30
2019-04-05T12:23:45.060Z,16.50
2019-04-05T12:26:20.413Z,17.50
2019-04-05T12:28:59.112Z,19.00
2019-04-05T12:31:38.611Z,20.50
2019-04-05T12:34:15.171Z,22.10
2019-04-05T12:36:50.581Z,23.10
2019-04-05T12:39:43.471Z,23.60
2019-04-05T12:42:19.633Z,24.10
2019-04-05T12:45:00.552Z,24.10
2019-04-05T12:47:39.085Z,23.80
2019-04-05T12:50:18.335Z,23.00
2019-04-05T12:56:00.698Z,24.00
2019-04-05T12:58:48.433Z,24.40
2019-04-05T13:01:23.932Z,24.20
2019-04-05T13:03:58.954Z,24.40
2019-04-05T13:06:36.011Z,23.80
2019-04-05T13:09:35.225Z,23.10
2019-04-05T13:12:17.317Z,23.20
2019-04-05T13:15:16.811Z,23.60
2019-04-05T13:18:02.249Z,23.70
2019-04-05T13:20:45.673Z,24.10
2019-04-05T13:23:30.632Z,23.80
2019-04-05T13:26:19.395Z,23.40
2019-04-05T13:29:00.832Z,22.80
2019-04-05T13:31:38.042Z,22.30
2019-04-05T13:34:18.395Z,22.20
2019-04-05T13:37:03.910Z,22.30
2019-04-05T13:39:41.181Z,22.70
2019-04-05T13:42:16.536Z,22.70
2019-04-05T13:45:00.858Z,22.90
2019-04-05T13:47:38.887Z,22.70
2019-04-05T13:50:15.443Z,22.90
2019-04-05T13:52:52.652Z,22.80
2019-04-05T13:55:27.721Z,22.90
2019-04-05T13:58:10.735Z,23.10
2019-04-05T14:00:48.330Z,22.80
2019-04-05T14:06:30.760Z,22.90
2019-04-05T14:09:10.266Z,22.50
2019-04-05T14:11:45.485Z,22.30
2019-04-05T14:14:20.934Z,22.30
2019-04-05T14:16:55.962Z,22.10
2019-04-05T14:19:31.337Z,22.10
2019-04-05T14:22:08.823Z,22.30
2019-04-05T14:24:45.505Z,22.70
2019-04-05T14:27:21.730Z,22.90
2019-04-05T14:29:57.015Z,22.50
2019-04-05T14:32:37.374Z,22.40
2019-04-05T14:35:15.515Z,21.80
2019-04-05T14:37:52.328Z,21.20
2019-04-05T14:40:33.144Z,20.70
2019-04-05T14:43:15.004Z,20.40
2019-04-05T14:45:50.355Z,20.50
2019-04-05T14:48:27.329Z,20.60
2019-04-05T14:51:02.197Z,20.80
2019-04-05T14:53:37.582Z,20.80
2019-04-05T14:56:13.066Z,20.70
2019-04-05T14:58:48.086Z,20.90
2019-04-05T15:01:23.538Z,20.70
2019-04-05T15:04:01.488Z,20.70
2019-04-05T15:06:42.333Z,20.80
2019-04-05T15:09:17.443Z,20.70
2019-04-05T15:11:52.623Z,20.60
2019-04-05T15:14:31.464Z,20.60
2019-04-05T15:17:12.908Z,20.60
2019-04-05T15:19:47.946Z,20.70
2019-04-05T15:22:28.465Z,20.50
2019-04-05T15:25:04.714Z,20.40
2019-04-05T15:27:40.068Z,20.40
2019-04-05T15:30:15.426Z,20.10
2019-04-05T15:32:51.484Z,20.00
2019-04-05T15:35:28.277Z,19.80
2019-04-05T15:38:03.719Z,19.50
2019-04-05T15:40:42.495Z,19.20
2019-04-05T15:43:17.573Z,19.10
2019-04-05T15:45:54.884Z,18.90
2019-04-05T15:48:29.981Z,18.80
2019-04-05T15:51:05.007Z,18.80
2019-04-05T15:53:40.554Z,18.80
2019-04-05T15:56:15.681Z,19.00
2019-04-05T15:58:52.379Z,18.90
2019-04-05T16:01:27.818Z,18.80
2019-04-05T16:04:09.469Z,18.60
2019-04-05T16:06:45.898Z,18.50
2019-04-05T16:09:26.578Z,18.30
2019-04-05T16:12:02.057Z,18.20
2019-04-05T16:14:37.253Z,18.10
2019-04-05T16:17:17.235Z,18.10
2019-04-05T16:19:52.351Z,18.00
2019-04-05T16:22:31.552Z,18.00
2019-04-05T16:25:06.233Z,18.10
2019-04-05T16:27:41.350Z,18.30
2019-04-05T16:30:17.658Z,18.40
2019-04-05T16:32:53.791Z,18.50
2019-04-05T16:35:29.804Z,18.40
2019-04-05T16:38:05.146Z,18.20
2019-04-05T16:40:41.374Z,17.90
2019-04-05T16:43:16.650Z,17.70
2019-04-05T16:45:51.697Z,17.40
2019-04-05T16:48:26.787Z,17.20
2019-04-05T16:51:01.858Z,16.90
2019-04-05T16:53:39.800Z,16.60
2019-04-05T16:56:14.937Z,16.40
2019-04-05T16:58:50.386Z,16.30
2019-04-05T17:01:27.358Z,16.10
2019-04-05T17:04:04.496Z,15.90
2019-04-05T17:06:41.826Z,15.70
2019-04-05T17:09:16.880Z,15.50
2019-04-05T17:11:51.902Z,15.30
2019-04-05T17:14:27.216Z,15.20
2019-04-05T17:17:02.237Z,15.10
2019-04-05T17:19:38.179Z,15.00
2019-04-05T17:22:13.208Z,14.90
2019-04-05T17:24:48.304Z,14.80
2019-04-05T17:27:23.647Z,14.70
2019-04-05T17:29:58.971Z,14.60
2019-04-05T17:32:35.529Z,14.50
2019-04-05T17:35:11.099Z,14.40
2019-04-05T17:37:47.306Z,14.30
2019-04-05T17:40:23.899Z,14.20
2019-04-05T17:42:59.842Z,14.20
2019-04-05T17:45:35.854Z,14.10
2019-04-05T17:48:13.155Z,14.10
2019-04-05T17:50:48.593Z,13.90
2019-04-05T17:53:24.598Z,13.80
2019-04-05T17:55:59.634Z,13.80
2019-04-05T17:58:37.835Z,13.70
2019-04-05T18:01:14.361Z,13.60
2019-04-05T18:03:49.681Z,13.60
2019-04-05T18:06:26.359Z,13.50
2019-04-05T18:09:01.527Z,13.50
2019-04-05T18:11:38.284Z,13.40
2019-04-05T18:14:14.691Z,13.30
2019-04-05T18:16:50.803Z,13.30
2019-04-05T18:19:26.682Z,13.20
2019-04-05T18:22:02.082Z,13.20
2019-04-05T18:24:38.059Z,13.10
2019-04-05T18:27:14.367Z,13.00
2019-04-05T18:29:51.073Z,13.00
2019-04-05T18:32:26.722Z,12.90
2019-04-05T18:35:04.361Z,12.90
2019-04-05T18:37:39.832Z,12.90
2019-04-05T18:40:17.780Z,12.80
2019-04-05T18:42:52.964Z,12.90
2019-04-05T18:45:29.211Z,12.90
2019-04-05T18:48:07.868Z,12.90
2019-04-05T18:50:48.504Z,12.80
2019-04-05T18:53:36.743Z,12.90
2019-04-05T18:56:02.309Z,12.90
2019-04-05T18:58:43.869Z,12.90
2019-04-05T19:01:21.527Z,12.90
2019-04-05T19:04:21.438Z,12.80
2019-04-05T19:06:56.572Z,12.80
2019-04-05T19:09:31.655Z,12.70
2019-04-05T19:12:08.022Z,12.70
2019-04-05T19:14:47.856Z,12.60
2019-04-05T19:17:24.490Z,12.60
2019-04-05T19:20:00.302Z,12.50
2019-04-05T19:22:35.465Z,12.40
2019-04-05T19:25:11.293Z,12.40
2019-04-05T19:27:46.603Z,12.30
2019-04-05T19:49:26.567Z,12.30
2019-04-05T19:52:01.820Z,12.20
2019-04-05T19:54:36.879Z,12.20
2019-04-05T19:57:12.728Z,12.10
2019-04-05T19:59:48.466Z,12.10
2019-04-05T20:02:23.745Z,12.00
2019-04-05T20:05:00.242Z,12.00
2019-04-05T20:07:37.542Z,11.90
2019-04-05T20:10:12.958Z,11.90
2019-04-05T20:12:48.173Z,11.90
2019-04-05T20:15:25.317Z,11.90
2019-04-05T20:18:00.455Z,11.80
2019-04-05T20:20:36.950Z,11.80
2019-04-05T20:23:12.109Z,11.90
2019-04-05T20:25:48.388Z,11.90
2019-04-05T20:28:23.472Z,11.90
2019-04-05T20:30:58.537Z,11.90
2019-04-05T20:33:34.870Z,11.90
2019-04-05T20:36:09.988Z,11.90
2019-04-05T20:38:45.053Z,11.90
2019-04-05T20:41:20.167Z,11.90
2019-04-05T20:43:58.844Z,11.80
2019-04-05T20:46:34.154Z,11.80
2019-04-05T20:49:09.303Z,11.80
2019-04-05T20:51:44.727Z,11.80
2019-04-05T20:54:24.603Z,11.80
2019-04-05T20:56:56.858Z,11.80
2019-04-05T20:59:31.938Z,11.80
2019-04-05T21:02:07.031Z,11.80
2019-04-05T21:04:42.107Z,11.80
2019-04-05T21:07:17.479Z,11.80
2019-04-05T21:09:53.528Z,11.80
2019-04-05T21:12:28.840Z,11.90
2019-04-05T21:15:05.459Z,11.80
2019-04-05T21:17:40.602Z,11.80
2019-04-05T21:20:16.151Z,11.90
2019-04-05T21:22:51.540Z,11.80
2019-04-05T21:25:26.603Z,11.80
2019-04-05T21:28:01.989Z,11.80
2019-04-05T21:30:37.140Z,11.70
2019-04-05T21:33:12.268Z,11.80
2019-04-05T21:35:47.342Z,11.70
2019-04-05T21:38:22.386Z,11.60
2019-04-05T21:40:57.507Z,11.60
2019-04-05T21:43:32.907Z,11.60
2019-04-05T21:46:08.685Z,11.60
2019-04-05T21:48:45.036Z,11.60
2019-04-05T21:51:20.155Z,11.60
2019-04-05T21:53:55.557Z,11.50
2019-04-05T21:56:30.943Z,11.60
2019-04-05T21:59:06.005Z,11.50
2019-04-05T22:01:41.256Z,11.50
2019-04-05T22:04:16.447Z,11.40
2019-04-05T22:06:53.794Z,11.30
2019-04-05T22:09:30.062Z,11.30
2019-04-05T22:12:05.260Z,11.20
2019-04-05T22:14:41.467Z,11.20
2019-04-05T22:17:16.881Z,11.20
2019-04-05T22:19:52.230Z,11.20
2019-04-05T22:22:27.526Z,11.20
2019-04-05T22:25:05.000Z,11.20
2019-04-05T22:27:40.038Z,11.10
2019-04-05T22:30:15.160Z,11.10
2019-04-05T22:32:50.299Z,11.10
2019-04-05T22:35:25.336Z,11.00
2019-04-05T22:38:00.635Z,11.00
2019-04-05T22:40:36.590Z,11.00
2019-04-05T22:43:11.721Z,11.10
2019-04-05T22:45:46.751Z,11.10
2019-04-05T22:48:21.811Z,11.10
2019-04-05T22:50:56.977Z,11.10
2019-04-05T22:53:32.337Z,11.10
2019-04-05T22:56:08.332Z,11.10
2019-04-05T22:58:44.317Z,11.10
2019-04-05T23:01:19.356Z,11.10
2019-04-05T23:03:54.415Z,11.10
2019-04-05T23:06:29.435Z,11.00
2019-04-05T23:09:07.176Z,11.00
2019-04-05T23:11:42.219Z,11.00
2019-04-05T23:14:19.254Z,11.00
2019-04-05T23:16:54.364Z,10.90
2019-04-05T23:19:29.736Z,10.90
2019-04-05T23:22:04.864Z,10.80
2019-04-05T23:24:40.152Z,10.80
2019-04-05T23:27:15.545Z,10.80
2019-04-05T23:29:51.464Z,10.70
2019-04-05T23:32:26.525Z,10.60
2019-04-05T23:35:01.864Z,10.60
2019-04-05T23:37:37.257Z,10.50
2019-04-05T23:40:12.823Z,10.50
2019-04-05T23:42:47.884Z,10.40
2019-04-05T23:45:24.154Z,10.40
2019-04-05T23:47:59.218Z,10.40
2019-04-05T23:50:34.515Z,10.40
2019-04-05T23:53:10.532Z,10.40
2019-04-05T23:55:45.621Z,10.50
2019-04-05T23:58:20.652Z,10.50
